createdAt,value
2022-08-22T00:02:03.146Z,100837.03
2022-08-22T00:02:58.277Z,100774.03
2022-08-22T00:02:59.184Z,100839.50
2022-08-22T00:02:59.527Z,100811.19
2022-08-22T00:03:01.815Z,100786.22
2022-08-22T00:04:37.803Z,100839.34
2022-08-22T00:07:13.433Z,100841.69
2022-08-22T00:09:46.611Z,100839.47
2022-08-22T00:12:19.160Z,100840.31
2022-08-22T00:14:53.554Z,100830.16
2022-08-22T00:17:32.773Z,100825.19
2022-08-22T00:20:08.211Z,100823.34
2022-08-22T00:22:42.516Z,100816.13
2022-08-22T00:25:26.804Z,100828.13
2022-08-22T00:27:58.384Z,100828.59
2022-08-22T00:30:26.656Z,100826.94
2022-08-22T00:32:58.980Z,100823.09
2022-08-22T00:35:32.345Z,100821.72
2022-08-22T00:38:05.525Z,100822.19
2022-08-22T00:40:47.151Z,100816.81
2022-08-22T00:43:51.556Z,100826.16
2022-08-22T00:46:56.229Z,100826.66
2022-08-22T00:49:43.883Z,100811.78
2022-08-22T00:52:45.916Z,100824.44
2022-08-22T00:55:34.951Z,100823.59
2022-08-22T00:58:30.054Z,100830.22
2022-08-22T01:01:04.427Z,100828.72
2022-08-22T01:04:05.746Z,100832.38
2022-08-22T01:06:43.884Z,100828.56
2022-08-22T01:09:35.474Z,100834.69
2022-08-22T01:12:17.424Z,100821.72
2022-08-22T01:14:49.186Z,100817.72
2022-08-22T01:17:59.089Z,100815.03
2022-08-22T01:20:59.205Z,100807.81
2022-08-22T01:24:00.335Z,100809.00
2022-08-22T01:27:01.650Z,100817.13
2022-08-22T01:29:54.982Z,100806.28
2022-08-22T01:32:57.342Z,100806.59
2022-08-22T01:35:55.715Z,100810.22
2022-08-22T01:39:01.894Z,100809.56
2022-08-22T01:42:03.726Z,100814.34
2022-08-22T01:44:49.984Z,100800.13
2022-08-22T01:47:20.810Z,100812.78
2022-08-22T01:49:53.773Z,100804.25
2022-08-22T01:52:36.557Z,100816.06
2022-08-22T01:55:10.264Z,100821.03
2022-08-22T01:57:51.622Z,100798.72
2022-08-22T02:00:35.064Z,100818.00
2022-08-22T02:03:18.784Z,100820.28
2022-08-22T02:05:52.049Z,100821.06
2022-08-22T02:08:31.446Z,100801.28
2022-08-22T02:11:03.387Z,100812.00
2022-08-22T02:13:48.660Z,100812.97
2022-08-22T02:16:20.776Z,100814.13
2022-08-22T02:19:21.154Z,100811.63
2022-08-22T02:21:55.988Z,100793.44
2022-08-22T02:24:35.990Z,100811.88
2022-08-22T02:27:11.808Z,100809.00
2022-08-22T02:29:43.670Z,100807.94
2022-08-22T02:32:22.396Z,100803.22
2022-08-22T02:34:59.418Z,100809.13
2022-08-22T02:37:34.406Z,100800.63
2022-08-22T02:40:10.334Z,100805.41
2022-08-22T02:42:42.774Z,100801.78
2022-08-22T02:45:20.853Z,100790.47
2022-08-22T02:47:56.234Z,100791.06
2022-08-22T02:50:31.778Z,100764.53
2022-08-22T02:53:05.521Z,100790.00
2022-08-22T02:55:46.155Z,100783.84
2022-08-22T02:58:23.097Z,100786.13
2022-08-22T03:01:08.555Z,100780.97
2022-08-22T03:03:40.139Z,100786.88
2022-08-22T03:06:28.022Z,100793.00
2022-08-22T03:09:07.185Z,100788.44
2022-08-22T03:11:40.643Z,100775.69
2022-08-22T03:14:15.756Z,100785.34
2022-08-22T03:16:52.176Z,100783.94
2022-08-22T03:19:27.592Z,100783.28
2022-08-22T03:21:58.127Z,100772.84
2022-08-22T03:24:32.047Z,100781.75
2022-08-22T03:27:10.493Z,100773.84
2022-08-22T03:29:39.947Z,100786.50
2022-08-22T03:32:11.283Z,100788.34
2022-08-22T03:34:53.306Z,100780.66
2022-08-22T03:37:28.320Z,100784.28
2022-08-22T03:40:00.962Z,100781.25
2022-08-22T03:43:03.498Z,100779.97
2022-08-22T03:46:02.028Z,100763.56
2022-08-22T03:49:00.897Z,100776.38
2022-08-22T03:51:54.740Z,100773.19
2022-08-22T03:55:02.790Z,100776.81
2022-08-22T03:58:19.166Z,100775.06
2022-08-22T04:01:28.202Z,100773.00
2022-08-22T04:04:28.456Z,100752.53
2022-08-22T04:07:31.535Z,100770.50
2022-08-22T04:10:22.312Z,100778.75
2022-08-22T04:13:03.816Z,100749.13
2022-08-22T04:15:53.137Z,100761.09
2022-08-22T04:18:49.686Z,100766.25
2022-08-22T04:21:41.715Z,100777.25
2022-08-22T04:24:30.511Z,100775.69
2022-08-22T04:27:02.465Z,100781.00
2022-08-22T04:29:38.724Z,100769.56
2022-08-22T04:32:12.799Z,100779.31
2022-08-22T04:34:49.869Z,100776.84
2022-08-22T04:37:23.540Z,100774.47
2022-08-22T04:39:56.801Z,100779.75
2022-08-22T04:42:33.577Z,100781.56
2022-08-22T04:45:07.295Z,100783.25
2022-08-22T04:47:39.350Z,100781.56
2022-08-22T04:50:13.971Z,100757.38
2022-08-22T04:52:56.170Z,100782.13
2022-08-22T04:55:31.558Z,100777.69
2022-08-22T04:58:09.555Z,100760.16
2022-08-22T05:00:41.480Z,100782.31
2022-08-22T05:03:12.149Z,100793.00
2022-08-22T05:05:42.430Z,100786.72
2022-08-22T05:08:12.604Z,100792.03
2022-08-22T05:10:43.273Z,100795.38
2022-08-22T05:13:15.290Z,100796.75
2022-08-22T05:15:45.771Z,100757.06
2022-08-22T05:18:19.801Z,100792.69
2022-08-22T05:20:51.227Z,100792.13
2022-08-22T05:23:21.401Z,100775.69
2022-08-22T05:25:51.771Z,100804.25
2022-08-22T05:28:31.170Z,100784.47
2022-08-22T05:30:58.838Z,100800.06
2022-08-22T05:33:30.095Z,100793.09
2022-08-22T05:36:03.182Z,100777.47
2022-08-22T05:38:33.515Z,100789.44
2022-08-22T05:41:05.721Z,100785.50
2022-08-22T05:43:36.979Z,100793.69
2022-08-22T05:46:07.256Z,100790.59
2022-08-22T05:48:40.320Z,100785.84
2022-08-22T05:51:15.292Z,100793.47
2022-08-22T05:53:47.355Z,100802.75
2022-08-22T05:56:18.642Z,100801.31
2022-08-22T05:58:52.749Z,100783.22
2022-08-22T06:01:24.853Z,100801.53
2022-08-22T06:03:59.434Z,100801.59
2022-08-22T06:06:29.930Z,100796.75
2022-08-22T06:09:02.243Z,100803.00
2022-08-22T06:11:34.581Z,100799.88
2022-08-22T06:14:13.181Z,100801.03
2022-08-22T06:16:47.534Z,100797.16
2022-08-22T06:19:19.221Z,100796.22
2022-08-22T06:21:50.608Z,100802.59
2022-08-22T06:24:20.503Z,100799.84
2022-08-22T06:26:50.193Z,100814.03
2022-08-22T06:29:28.860Z,100810.97
2022-08-22T06:31:56.992Z,100766.75
2022-08-22T06:34:26.292Z,100813.78
2022-08-22T06:36:57.170Z,100819.00
2022-08-22T06:43:11.367Z,100811.94
2022-08-22T06:45:40.005Z,100799.97
2022-08-22T06:48:15.290Z,100820.91
2022-08-22T06:50:44.376Z,100817.94
2022-08-22T06:53:16.713Z,100816.16
2022-08-22T06:55:47.932Z,100821.00
2022-08-22T06:58:17.238Z,100822.00
2022-08-22T07:00:51.116Z,100824.19
2022-08-22T07:03:36.716Z,100817.22
2022-08-22T07:06:04.345Z,100820.03
2022-08-22T07:08:38.899Z,100815.88
2022-08-22T07:11:13.690Z,100822.19
2022-08-22T07:13:45.395Z,100804.47
2022-08-22T07:16:12.525Z,100815.44
2022-08-22T07:18:47.347Z,100804.44
2022-08-22T07:21:25.023Z,100802.53
2022-08-22T07:23:54.342Z,100807.47
2022-08-22T07:26:30.851Z,100803.69
2022-08-22T07:29:04.464Z,100802.81
2022-08-22T07:31:36.965Z,100817.34
2022-08-22T07:34:23.553Z,100806.78
2022-08-22T07:36:58.491Z,100812.91
2022-08-22T07:39:31.399Z,100805.69
2022-08-22T07:42:08.306Z,100808.63
2022-08-22T07:44:41.318Z,100806.72
2022-08-22T07:47:13.025Z,100814.50
2022-08-22T07:49:49.672Z,100805.22
2022-08-22T07:52:17.501Z,100812.63
2022-08-22T07:54:51.559Z,100811.00
2022-08-22T07:57:26.627Z,100799.38
2022-08-22T07:59:56.079Z,100803.16
2022-08-22T08:02:24.247Z,100795.38
2022-08-22T08:04:54.758Z,100802.66
2022-08-22T08:07:25.233Z,100789.94
2022-08-22T08:09:57.509Z,100808.47
2022-08-22T08:12:30.194Z,100812.59
2022-08-22T08:14:57.738Z,100808.03
2022-08-22T08:17:31.538Z,100802.41
2022-08-22T08:20:03.357Z,100794.91
2022-08-22T08:22:30.915Z,100804.41
2022-08-22T08:25:00.324Z,100791.50
2022-08-22T08:27:30.850Z,100798.09
2022-08-22T08:30:01.065Z,100779.53
2022-08-22T08:32:32.017Z,100796.81
2022-08-22T08:35:02.349Z,100797.56
2022-08-22T08:37:40.098Z,100782.34
2022-08-22T08:40:20.451Z,100770.59
2022-08-22T08:43:02.397Z,100781.44
2022-08-22T08:45:52.787Z,100785.25
2022-08-22T08:49:06.351Z,100767.25
2022-08-22T08:51:52.026Z,100776.97
2022-08-22T08:54:40.619Z,100777.63
2022-08-22T08:57:20.324Z,100764.16
2022-08-22T09:00:00.404Z,100756.50
2022-08-22T09:02:48.899Z,100743.66
2022-08-22T09:05:40.865Z,100738.03
2022-08-22T09:08:40.119Z,100756.81
2022-08-22T09:11:39.802Z,100754.03
2022-08-22T09:14:22.838Z,100755.66
2022-08-22T09:17:16.868Z,100742.00
2022-08-22T09:20:15.461Z,100756.19
2022-08-22T09:23:12.301Z,100746.47
2022-08-22T09:25:45.658Z,100744.13
2022-08-22T09:28:18.544Z,100749.38
2022-08-22T09:30:58.283Z,100748.44
2022-08-22T09:33:46.424Z,100740.22
2022-08-22T09:36:23.377Z,100744.00
2022-08-22T09:38:55.520Z,100730.38
2022-08-22T09:41:38.886Z,100719.34
2022-08-22T09:44:29.160Z,100732.81
2022-08-22T09:47:05.970Z,100719.88
2022-08-22T09:49:45.958Z,100721.94
2022-08-22T09:52:33.281Z,100720.28
2022-08-22T09:55:08.961Z,100715.72
2022-08-22T09:57:42.257Z,100707.59
2022-08-22T10:00:22.242Z,100696.38
2022-08-22T10:03:17.853Z,100722.06
2022-08-22T10:05:47.479Z,100718.56
2022-08-22T10:08:25.538Z,100720.22
2022-08-22T10:11:19.766Z,100711.50
2022-08-22T10:14:00.481Z,100704.44
2022-08-22T10:16:51.040Z,100689.97
2022-08-22T10:19:26.539Z,100690.03
2022-08-22T10:22:19.353Z,100702.97
2022-08-22T10:24:55.521Z,100686.50
2022-08-22T10:27:42.126Z,100691.13
2022-08-22T10:30:13.214Z,100693.59
2022-08-22T10:32:44.815Z,100688.38
2022-08-22T10:35:21.569Z,100689.44
2022-08-22T10:37:55.607Z,100686.66
2022-08-22T10:40:29.823Z,100664.63
2022-08-22T10:43:03.900Z,100689.19
2022-08-22T10:45:36.681Z,100660.84
2022-08-22T10:48:25.949Z,100688.56
2022-08-22T10:51:11.491Z,100685.19
2022-08-22T10:54:08.475Z,100678.28
2022-08-22T10:56:46.021Z,100678.19
2022-08-22T10:59:28.174Z,100675.81
2022-08-22T11:02:08.200Z,100674.72
2022-08-22T11:04:54.073Z,100670.81
2022-08-22T11:07:48.732Z,100666.00
2022-08-22T11:10:28.711Z,100663.19
2022-08-22T11:13:12.322Z,100662.25
2022-08-22T11:15:54.835Z,100660.56
2022-08-22T11:18:35.134Z,100663.59
2022-08-22T11:21:07.338Z,100661.81
2022-08-22T11:23:42.263Z,100653.31
2022-08-22T11:26:33.804Z,100649.88
2022-08-22T11:29:32.390Z,100650.47
2022-08-22T11:32:09.454Z,100645.19
2022-08-22T11:34:48.442Z,100643.44
2022-08-22T11:37:43.337Z,100639.66
2022-08-22T11:40:24.545Z,100640.50
2022-08-22T11:43:00.827Z,100635.34
2022-08-22T11:45:36.955Z,100634.97
2022-08-22T11:48:11.841Z,100626.78
2022-08-22T11:50:45.136Z,100613.63
2022-08-22T11:53:27.253Z,100627.34
2022-08-22T11:56:12.725Z,100625.66
2022-08-22T11:58:49.957Z,100625.44
2022-08-22T12:01:21.810Z,100606.41
2022-08-22T12:04:03.324Z,100624.44
2022-08-22T12:06:50.264Z,100611.66
2022-08-22T12:09:35.558Z,100620.72
2022-08-22T12:12:33.830Z,100610.72
2022-08-22T12:15:11.111Z,100597.00
2022-08-22T12:18:21.311Z,100610.91
2022-08-22T12:21:21.608Z,100604.72
2022-08-22T12:24:11.317Z,100582.69
2022-08-22T12:27:01.933Z,100612.03
2022-08-22T12:29:51.274Z,100603.03
2022-08-22T12:32:43.967Z,100599.25
2022-08-22T12:35:29.709Z,100590.47
2022-08-22T12:38:11.661Z,100589.88
2022-08-22T12:41:27.807Z,100577.88
2022-08-22T12:44:17.201Z,100589.88
2022-08-22T12:47:01.095Z,100578.63
2022-08-22T12:49:41.803Z,100580.22
2022-08-22T12:52:32.430Z,100561.56
2022-08-22T12:55:27.431Z,100566.91
2022-08-22T12:58:04.139Z,100568.13
2022-08-22T13:00:34.830Z,100548.97
2022-08-22T13:03:07.018Z,100559.75
2022-08-22T13:05:41.038Z,100557.47
2022-08-22T13:08:13.409Z,100549.91
2022-08-22T13:10:46.517Z,100550.94
2022-08-22T13:13:36.526Z,100556.19
2022-08-22T13:16:07.292Z,100551.47
2022-08-22T13:18:45.501Z,100554.41
2022-08-22T13:21:16.819Z,100547.28
2022-08-22T13:23:47.011Z,100552.41
2022-08-22T13:26:33.104Z,100560.28
2022-08-22T13:29:24.702Z,100550.72
2022-08-22T13:31:55.214Z,100548.69
2022-08-22T13:34:39.600Z,100542.38
2022-08-22T13:37:11.783Z,100549.03
2022-08-22T13:39:42.058Z,100531.72
2022-08-22T13:42:27.643Z,100541.81
2022-08-22T13:45:02.469Z,100529.44
2022-08-22T13:47:32.014Z,100525.19
2022-08-22T13:50:09.028Z,100530.66
2022-08-22T13:52:45.835Z,100531.91
2022-08-22T13:55:27.626Z,100532.66
2022-08-22T13:58:02.415Z,100527.72
2022-08-22T14:01:17.810Z,100514.56
2022-08-22T14:03:49.170Z,100524.94
2022-08-22T14:06:37.768Z,100517.28
2022-08-22T14:09:17.369Z,100525.47
2022-08-22T14:12:06.821Z,100521.88
2022-08-22T14:14:42.438Z,100523.66
2022-08-22T14:17:15.409Z,100517.59
2022-08-22T14:19:58.680Z,100500.06
2022-08-22T14:22:34.791Z,100513.03
2022-08-22T14:25:07.539Z,100518.66
2022-08-22T14:27:37.723Z,100521.97
2022-08-22T14:30:14.876Z,100518.59
2022-08-22T14:32:45.757Z,100522.75
2022-08-22T14:35:25.733Z,100520.03
2022-08-22T14:38:17.365Z,100515.53
2022-08-22T14:40:45.425Z,100522.25
2022-08-22T14:43:22.488Z,100517.16
2022-08-22T14:45:56.538Z,100511.13
2022-08-22T14:48:31.049Z,100507.53
2022-08-22T14:51:05.354Z,100507.31
2022-08-22T14:53:35.644Z,100502.66
2022-08-22T14:56:07.966Z,100504.88
2022-08-22T14:58:49.076Z,100505.09
2022-08-22T15:01:21.677Z,100505.66
2022-08-22T15:03:54.769Z,100508.13
2022-08-22T15:06:33.254Z,100501.25
2022-08-22T15:09:07.852Z,100501.03
2022-08-22T15:11:36.576Z,100500.16
2022-08-22T15:14:07.633Z,100491.53
2022-08-22T15:16:44.661Z,100492.81
2022-08-22T15:19:25.010Z,100482.72
2022-08-22T15:22:08.394Z,100483.06
2022-08-22T15:24:43.062Z,100472.44
2022-08-22T15:27:10.544Z,100487.69
2022-08-22T15:29:49.955Z,100469.31
2022-08-22T15:32:22.112Z,100466.69
2022-08-22T15:34:49.196Z,100476.47
2022-08-22T15:37:32.371Z,100467.63
2022-08-22T15:40:12.027Z,100468.00
2022-08-22T15:42:42.503Z,100465.34
2022-08-22T15:45:20.833Z,100469.88
2022-08-22T15:47:52.207Z,100468.44
2022-08-22T15:50:30.913Z,100469.94
2022-08-22T15:53:15.082Z,100469.75
2022-08-22T15:56:20.594Z,100473.47
2022-08-22T15:58:49.934Z,100465.66
2022-08-22T16:01:20.473Z,100454.84
2022-08-22T16:03:54.538Z,100461.72
2022-08-22T16:06:40.532Z,100457.38
2022-08-22T16:09:31.804Z,100460.72
2022-08-22T16:12:04.143Z,100463.78
2022-08-22T16:14:49.225Z,100457.84
2022-08-22T16:17:45.605Z,100463.63
2022-08-22T16:20:54.224Z,100465.44
2022-08-22T16:23:21.239Z,100471.00
2022-08-22T16:26:09.378Z,100462.34
2022-08-22T16:28:58.597Z,100460.53
2022-08-22T16:31:30.396Z,100463.09
2022-08-22T16:34:18.664Z,100465.31
2022-08-22T16:36:49.163Z,100464.81
2022-08-22T16:39:38.778Z,100449.34
2022-08-22T16:42:26.374Z,100464.91
2022-08-22T16:45:10.462Z,100465.22
2022-08-22T16:47:42.718Z,100461.38
2022-08-22T16:50:32.231Z,100462.19
2022-08-22T16:53:02.528Z,100467.69
2022-08-22T16:55:42.806Z,100467.97
2022-08-22T16:58:22.553Z,100458.69
2022-08-22T17:00:58.686Z,100466.84
2022-08-22T17:03:37.672Z,100458.66
2022-08-22T17:06:19.019Z,100463.81
2022-08-22T17:08:57.163Z,100456.16
2022-08-22T17:11:35.106Z,100454.75
2022-08-22T17:14:25.658Z,100457.97
2022-08-22T17:17:12.505Z,100458.47
2022-08-22T17:19:47.809Z,100459.50
2022-08-22T17:22:29.256Z,100459.69
2022-08-22T17:25:09.030Z,100456.88
2022-08-22T17:27:39.583Z,100459.81
2022-08-22T17:30:09.772Z,100457.31
2022-08-22T17:33:03.672Z,100460.28
2022-08-22T17:35:43.273Z,100465.13
2022-08-22T17:38:26.642Z,100460.97
2022-08-22T17:41:05.628Z,100469.31
2022-08-22T17:43:49.650Z,100437.81
2022-08-22T17:46:41.636Z,100461.47
2022-08-22T17:49:22.408Z,100469.78
2022-08-22T17:51:57.042Z,100458.19
2022-08-22T17:54:31.953Z,100468.44
2022-08-22T17:57:05.667Z,100467.25
2022-08-22T17:59:39.666Z,100468.78
2022-08-22T18:02:13.051Z,100475.72
2022-08-22T18:04:47.589Z,100470.19
2022-08-22T18:07:41.075Z,100469.13
2022-08-22T18:10:12.431Z,100473.63
2022-08-22T18:12:47.731Z,100473.75
2022-08-22T18:15:25.035Z,100474.97
2022-08-22T18:17:58.124Z,100474.84
2022-08-22T18:20:33.210Z,100472.56
2022-08-22T18:23:21.522Z,100469.66
2022-08-22T18:26:03.602Z,100465.41
2022-08-22T18:28:39.031Z,100472.47
2022-08-22T18:31:08.743Z,100471.91
2022-08-22T18:33:41.369Z,100478.47
2022-08-22T18:36:19.936Z,100475.38
2022-08-22T18:38:53.760Z,100490.25
2022-08-22T18:41:28.692Z,100484.06
2022-08-22T18:43:58.770Z,100493.88
2022-08-22T18:46:41.151Z,100495.91
2022-08-22T18:49:33.264Z,100499.72
2022-08-22T18:52:21.768Z,100499.38
2022-08-22T18:55:11.127Z,100489.53
2022-08-22T18:57:55.591Z,100504.13
2022-08-22T19:00:25.592Z,100509.06
2022-08-22T19:03:12.954Z,100507.56
2022-08-22T19:06:07.529Z,100500.53
2022-08-22T19:09:10.783Z,100514.06
2022-08-22T19:11:51.449Z,100523.53
2022-08-22T19:14:32.793Z,100507.19
2022-08-22T19:17:20.101Z,100525.28
2022-08-22T19:19:59.113Z,100531.63
2022-08-22T19:22:28.317Z,100538.53
2022-08-22T19:25:16.662Z,100533.69
2022-08-22T19:27:46.502Z,100535.69
2022-08-22T19:30:42.406Z,100537.66
2022-08-22T19:33:11.662Z,100527.91
2022-08-22T19:35:44.677Z,100517.41
2022-08-22T19:38:12.117Z,100521.94
2022-08-22T19:40:53.055Z,100542.84
2022-08-22T19:43:28.054Z,100537.41
2022-08-22T19:45:55.892Z,100537.91
2022-08-22T19:48:25.897Z,100521.47
2022-08-22T19:51:09.164Z,100549.97
2022-08-22T19:53:50.251Z,100544.72
2022-08-22T19:56:42.678Z,100541.09
2022-08-22T19:59:22.173Z,100545.53
2022-08-22T20:01:57.710Z,100539.94
2022-08-22T20:04:49.878Z,100540.63
2022-08-22T20:07:28.651Z,100537.41
2022-08-22T20:10:06.451Z,100527.78
2022-08-22T20:12:44.198Z,100542.91
2022-08-22T20:15:17.980Z,100537.59
2022-08-22T20:18:11.659Z,100545.16
2022-08-22T20:20:59.083Z,100535.34
2022-08-22T20:23:30.355Z,100523.84
2022-08-22T20:25:58.322Z,100523.88
2022-08-22T20:28:35.050Z,100536.72
2022-08-22T20:31:06.512Z,100519.41
2022-08-22T20:33:36.571Z,100547.72
2022-08-22T20:36:24.236Z,100548.59
2022-08-22T20:38:58.705Z,100519.50
2022-08-22T20:41:32.343Z,100535.44
2022-08-22T20:44:06.232Z,100531.50
2022-08-22T20:46:53.635Z,100541.22
2022-08-22T20:49:24.787Z,100531.94
2022-08-22T20:51:54.758Z,100538.78
2022-08-22T20:54:24.219Z,100512.34
2022-08-22T20:56:54.165Z,100533.84
2022-08-22T20:59:26.631Z,100523.31
2022-08-22T21:01:58.713Z,100524.75
2022-08-22T21:04:28.142Z,100530.56
2022-08-22T21:07:02.024Z,100533.06
2022-08-22T21:09:29.493Z,100527.47
2022-08-22T21:11:58.091Z,100522.56
2022-08-22T21:14:31.452Z,100534.16
2022-08-22T21:16:58.297Z,100531.63
2022-08-22T21:19:27.546Z,100539.69
2022-08-22T21:22:09.623Z,100540.94
2022-08-22T21:24:36.328Z,100522.56
2022-08-22T21:27:03.496Z,100537.03
2022-08-22T21:29:42.566Z,100543.03
2022-08-22T21:32:24.382Z,100540.34
2022-08-22T21:34:52.206Z,100537.66
2022-08-22T21:37:27.605Z,100542.66
2022-08-22T21:40:00.427Z,100536.25
2022-08-22T21:42:31.886Z,100540.78
2022-08-22T21:45:02.833Z,100542.41
2022-08-22T21:47:33.902Z,100546.97
2022-08-22T21:50:04.619Z,100542.44
2022-08-22T21:52:33.337Z,100542.59
2022-08-22T21:55:14.339Z,100547.94
2022-08-22T21:57:40.995Z,100536.34
2022-08-22T22:00:41.146Z,100545.25
2022-08-22T22:03:17.596Z,100539.88
2022-08-22T22:05:44.257Z,100525.59
2022-08-22T22:08:11.299Z,100551.22
2022-08-22T22:10:38.893Z,100549.97
2022-08-22T22:13:05.825Z,100554.09
2022-08-22T22:15:36.464Z,100555.34
2022-08-22T22:18:03.591Z,100557.59
2022-08-22T22:20:30.170Z,100556.53
2022-08-22T22:22:56.849Z,100540.19
2022-08-22T22:25:39.506Z,100557.94
2022-08-22T22:28:12.738Z,100546.47
2022-08-22T22:30:41.907Z,100557.84
2022-08-22T22:33:08.707Z,100561.13
2022-08-22T22:35:37.825Z,100566.25
2022-08-22T22:38:04.530Z,100564.72
2022-08-22T22:40:31.264Z,100572.53
2022-08-22T22:42:57.957Z,100572.50
2022-08-22T22:45:24.562Z,100575.16
2022-08-22T22:47:52.523Z,100552.34
2022-08-22T22:50:19.450Z,100571.34
2022-08-22T22:52:46.027Z,100575.66
2022-08-22T22:55:12.599Z,100571.25
2022-08-22T22:57:51.395Z,100576.75
2022-08-22T23:00:29.170Z,100573.00
2022-08-22T23:03:00.363Z,100577.28
2022-08-22T23:05:27.459Z,100571.25
2022-08-22T23:07:54.061Z,100580.31
2022-08-22T23:10:22.258Z,100579.38
2022-08-22T23:12:49.054Z,100582.81
2022-08-22T23:15:15.733Z,100587.28
2022-08-22T23:17:42.571Z,100581.03
2022-08-22T23:20:10.901Z,100586.97
2022-08-22T23:22:37.544Z,100588.81
2022-08-22T23:25:04.836Z,100581.91
2022-08-22T23:27:31.451Z,100592.09
2022-08-22T23:29:58.052Z,100595.09
2022-08-22T23:32:24.737Z,100589.84
2022-08-22T23:34:51.293Z,100588.94
2022-08-22T23:37:21.468Z,100590.16
2022-08-22T23:39:48.454Z,100593.38
2022-08-22T23:42:15.665Z,100591.66
2022-08-22T23:44:43.614Z,100596.06
2022-08-22T23:47:10.485Z,100589.31
2022-08-22T23:49:38.562Z,100585.94
2022-08-22T23:52:05.564Z,100596.97
2022-08-22T23:54:33.988Z,100601.41
2022-08-22T23:57:02.827Z,100608.13
2022-08-22T23:59:40.728Z,100601.03
